Time;durP1;ratioP1;P1;durP2;ratioP2;P2;SDS_P1;SDS_P2;PMS_P1;PMS_P2;Temp;Humidity;BMP_temperature;BMP_pressure;BME280_temperature;BME280_humidity;BME280_pressure;Samples;Min_cycle;Max_cycle;Signal;HPM_P1;HPM_P2
2022/01/12 00:00:42;;;;;;;27.73;16.40;;;;;;;-0.90;100.00;96840.09;5110572;28;20193;-65
2022/01/12 00:03:09;;;;;;;27.13;16.53;;;;;;;-0.87;100.00;96851.00;5111068;28;20209;-65
2022/01/12 00:05:35;;;;;;;26.53;16.47;;;;;;;-0.88;100.00;96848.63;5110961;28;20189;-66
2022/01/12 00:08:00;;;;;;;26.80;16.20;;;;;;;-0.88;100.00;96849.41;5110525;28;20245;-66
2022/01/12 00:10:26;;;;;;;26.73;16.77;;;;;;;-0.90;100.00;96848.13;5110491;28;20218;-65
2022/01/12 00:12:51;;;;;;;26.87;16.60;;;;;;;-0.88;100.00;96848.63;5110141;28;20670;-65
2022/01/12 00:15:16;;;;;;;27.37;16.43;;;;;;;-0.86;100.00;96849.13;5110888;28;20210;-65
2022/01/12 00:17:43;;;;;;;30.63;16.87;;;;;;;-0.87;100.00;96863.63;5110577;28;20223;-60
2022/01/12 00:20:08;;;;;;;25.90;16.07;;;;;;;-0.87;100.00;96855.59;5093068;28;20239;-61
2022/01/12 00:22:36;;;;;;;27.87;16.37;;;;;;;-0.88;100.00;96864.69;5110174;28;20295;-63
2022/01/12 00:25:23;;;;;;;24.63;16.27;;;;;;;-0.92;100.00;96861.00;5110050;28;20339;-61
2022/01/12 00:33:16;;;;;;;27.77;16.77;;;;;;;-0.96;100.00;96868.84;5094116;28;20243;-61
2022/01/12 00:35:51;;;;;;;30.03;17.50;;;;;;;-0.93;100.00;96868.28;5110163;28;20280;-63
2022/01/12 00:38:18;;;;;;;25.70;15.63;;;;;;;-0.91;100.00;96871.44;5093488;28;20257;-60
2022/01/12 00:40:52;;;;;;;28.93;17.60;;;;;;;-0.97;100.00;96863.78;5110406;28;20193;-65
2022/01/12 00:43:19;;;;;;;27.23;17.47;;;;;;;-1.02;100.00;96861.19;5109811;28;20197;-65
2022/01/12 00:45:46;;;;;;;29.27;17.43;;;;;;;-1.00;100.00;96861.69;5109957;28;20224;-65
2022/01/12 00:48:16;;;;;;;26.13;16.67;;;;;;;-1.01;100.00;96852.06;5110007;28;20193;-65
2022/01/12 00:50:42;;;;;;;27.90;17.43;;;;;;;-0.98;100.00;96856.84;5110071;28;20258;-65
2022/01/12 00:53:08;;;;;;;29.73;17.73;;;;;;;-1.03;100.00;96851.56;5093008;28;20262;-65
2022/01/12 00:55:35;;;;;;;26.73;16.97;;;;;;;-0.98;100.00;96859.53;5109718;28;20197;-64
2022/01/12 00:58:04;;;;;;;24.90;16.30;;;;;;;-1.05;100.00;96864.47;5109556;28;20196;-61
2022/01/12 01:00:31;;;;;;;29.07;17.43;;;;;;;-1.07;100.00;96855.91;5105505;28;20660;-60
2022/01/12 01:02:56;;;;;;;27.60;17.23;;;;;;;-1.09;100.00;96866.13;5109733;28;20207;-60
2022/01/12 01:05:23;;;;;;;27.80;17.43;;;;;;;-1.17;100.00;96856.09;5110259;28;20198;-60
2022/01/12 01:07:50;;;;;;;30.27;17.57;;;;;;;-1.13;100.00;96863.22;5092836;28;20192;-60
2022/01/12 01:11:03;;;;;;;26.80;16.20;;;;;;;-1.17;100.00;96861.47;5109682;28;20279;-61
2022/01/12 01:13:03;;;;;;;32.40;18.13;;;;;;;-1.23;100.00;96863.41;5089835;28;20227;-60
2022/01/12 01:26:43;;;;;;;29.93;18.23;;;;;;;-1.47;100.00;96868.06;5094007;28;20200;-58
2022/01/12 01:29:09;;;;;;;28.67;17.77;;;;;;;-1.50;100.00;96859.78;5109458;28;20201;-59
2022/01/12 01:31:36;;;;;;;29.60;18.00;;;;;;;-1.55;100.00;96863.38;5092168;28;20209;-61
2022/01/12 01:34:12;;;;;;;31.73;18.50;;;;;;;-1.59;100.00;96865.03;5093533;28;20197;-68
2022/01/12 01:36:59;;;;;;;30.00;18.17;;;;;;;-1.64;100.00;96851.69;5109317;28;20194;-67
2022/01/12 01:39:26;;;;;;;29.83;17.93;;;;;;;-1.72;100.00;96843.53;5092960;28;20293;-67
2022/01/12 01:41:57;;;;;;;30.90;17.67;;;;;;;-1.77;100.00;96852.44;5092476;28;20273;-66
2022/01/12 01:55:04;;;;;;;29.23;17.67;;;;;;;-2.04;100.00;96838.09;5097000;28;20207;-62
2022/01/12 01:57:31;;;;;;;32.93;18.80;;;;;;;-2.07;100.00;96836.00;5112422;28;20204;-61
2022/01/12 01:59:57;;;;;;;33.97;19.00;;;;;;;-2.10;100.00;96832.00;5112620;28;20298;-61
2022/01/12 02:02:22;;;;;;;32.07;18.23;;;;;;;-2.14;100.00;96835.53;5112563;28;20247;-61
2022/01/12 02:04:48;;;;;;;33.27;19.13;;;;;;;-2.17;100.00;96842.25;5113219;28;20193;-61
2022/01/12 02:07:14;;;;;;;31.47;17.37;;;;;;;-2.20;100.00;96842.84;5112534;28;20530;-64
2022/01/12 02:09:40;;;;;;;32.23;18.27;;;;;;;-2.22;100.00;96846.88;5096217;28;20196;-63
2022/01/12 02:12:06;;;;;;;31.17;18.50;;;;;;;-2.24;100.00;96846.34;5112292;28;20299;-60
2022/01/12 02:14:31;;;;;;;30.43;18.07;;;;;;;-2.25;100.00;96850.13;5112223;28;20216;-59
2022/01/12 02:17:03;;;;;;;34.90;18.77;;;;;;;-2.25;100.00;96845.59;5112302;28;20232;-59
2022/01/12 02:36:20;;;;;;;33.77;19.13;;;;;;;-2.46;100.00;96854.09;5096382;28;20561;-60
2022/01/12 02:41:30;;;;;;;35.23;17.77;;;;;;;-2.45;100.00;96861.06;5095710;28;20167;-59
2022/01/12 02:54:48;;;;;;;36.03;19.80;;;;;;;-2.18;100.00;96871.97;5096227;28;20188;-60
2022/01/12 02:57:13;;;;;;;34.77;20.10;;;;;;;-2.16;100.00;96880.50;5111579;28;20173;-60
2022/01/12 02:59:52;;;;;;;32.37;19.23;;;;;;;-2.13;100.00;96879.94;5111263;28;20552;-60
2022/01/12 03:02:26;;;;;;;32.40;19.10;;;;;;;-2.07;100.00;96884.16;5111259;28;20196;-60
2022/01/12 03:07:36;;;;;;;33.57;19.50;;;;;;;-2.03;100.00;96879.81;5095488;28;20253;-60
2022/01/12 03:10:04;;;;;;;32.67;20.10;;;;;;;-1.99;100.00;96883.50;5111440;28;20679;-60
2022/01/12 03:12:29;;;;;;;32.80;19.47;;;;;;;-1.94;100.00;96873.53;5094160;28;20216;-60
2022/01/12 03:14:54;;;;;;;33.77;19.67;;;;;;;-1.94;100.00;96878.06;5111291;28;20204;-60
2022/01/12 03:17:20;;;;;;;34.23;19.23;;;;;;;-1.97;100.00;96879.44;5093949;28;20200;-61
2022/01/12 03:19:45;;;;;;;34.50;19.83;;;;;;;-1.93;100.00;96879.69;5111722;28;20248;-60
2022/01/12 03:22:12;;;;;;;35.80;19.57;;;;;;;-1.86;100.00;96874.78;5111137;28;20219;-60
2022/01/12 03:24:38;;;;;;;32.67;19.10;;;;;;;-1.80;100.00;96878.97;5111563;28;20249;-63
2022/01/12 03:27:05;;;;;;;35.73;20.57;;;;;;;-1.85;100.00;96877.19;5111627;28;20204;-64
2022/01/12 03:29:30;;;;;;;35.03;19.60;;;;;;;-1.78;100.00;96876.81;5111193;28;20261;-63
2022/01/12 03:31:57;;;;;;;35.17;20.40;;;;;;;-1.77;100.00;96883.75;5111022;28;20232;-63
2022/01/12 03:34:26;;;;;;;36.13;20.90;;;;;;;-1.74;100.00;96883.19;5110657;28;20227;-64
2022/01/12 03:39:20;;;;;;;35.70;20.47;;;;;;;-1.71;100.00;96890.63;5095267;28;20203;-59
2022/01/12 03:41:46;;;;;;;36.40;20.57;;;;;;;-1.70;100.00;96889.53;5111259;28;20203;-60
2022/01/12 03:44:13;;;;;;;36.73;21.47;;;;;;;-1.69;100.00;96891.94;5111147;28;20192;-66
2022/01/12 03:46:45;;;;;;;37.23;21.40;;;;;;;-1.65;100.00;96890.28;5110397;28;20246;-66
2022/01/12 03:49:11;;;;;;;36.00;20.57;;;;;;;-1.69;100.00;96896.47;5110956;28;20204;-66
2022/01/12 03:51:36;;;;;;;38.07;21.40;;;;;;;-1.72;100.00;96894.38;5111123;28;20539;-66
2022/01/12 03:54:02;;;;;;;37.67;21.67;;;;;;;-1.81;100.00;96896.13;5110549;28;20205;-66
2022/01/12 03:56:28;;;;;;;37.47;20.80;;;;;;;-1.78;100.00;96896.31;5110598;28;20200;-66
2022/01/12 03:58:54;;;;;;;38.97;21.67;;;;;;;-1.70;100.00;96897.56;5110595;28;20295;-60
2022/01/12 04:01:20;;;;;;;34.43;21.00;;;;;;;-1.70;100.00;96905.59;5110618;28;20200;-59
2022/01/12 04:03:57;;;;;;;37.97;21.83;;;;;;;-1.67;100.00;96900.47;5110622;28;20195;-60
2022/01/12 04:09:06;;;;;;;36.00;19.93;;;;;;;-1.73;100.00;96895.47;5094726;28;20344;-60
2022/01/12 04:11:31;;;;;;;40.13;22.63;;;;;;;-1.76;100.00;96912.09;5110309;28;20634;-60
2022/01/12 04:13:56;;;;;;;38.83;21.80;;;;;;;-1.77;100.00;96905.16;5110773;28;20193;-60
2022/01/12 04:16:22;;;;;;;37.20;20.30;;;;;;;-1.87;100.00;96910.63;5110839;28;20619;-60
2022/01/12 04:18:47;;;;;;;39.10;22.37;;;;;;;-1.84;100.00;96905.53;5110657;28;20207;-59
2022/01/12 04:21:13;;;;;;;38.07;20.63;;;;;;;-1.83;100.00;96911.66;5110167;28;20196;-64
2022/01/12 04:23:40;;;;;;;40.50;21.73;;;;;;;-1.80;100.00;96922.59;5110301;28;20694;-64
2022/01/12 04:26:10;;;;;;;43.73;22.70;;;;;;;-1.82;100.00;96918.63;5110213;28;20189;-64
2022/01/12 04:28:38;;;;;;;40.10;21.53;;;;;;;-1.99;100.00;96913.75;5110428;28;20279;-63
2022/01/12 04:31:04;;;;;;;39.47;21.07;;;;;;;-1.96;100.00;96909.69;5110814;28;20222;-64
2022/01/12 04:33:31;;;;;;;37.87;21.47;;;;;;;-2.06;100.00;96907.13;5110398;28;20193;-63
2022/01/12 04:35:56;;;;;;;41.13;23.03;;;;;;;-2.16;100.00;96905.38;5110241;28;20279;-60
2022/01/12 04:38:25;;;;;;;43.37;22.17;;;;;;;-2.22;100.00;96924.44;5110498;28;20223;-59
2022/01/12 04:40:51;;;;;;;37.27;19.50;;;;;;;-2.21;100.00;96921.50;5110199;28;20200;-58
2022/01/12 04:43:18;;;;;;;36.87;20.30;;;;;;;-2.13;100.00;96928.06;5109398;28;20193;-58
2022/01/12 04:50:43;;;;;;;39.03;20.73;;;;;;;-2.31;100.00;96915.44;5094056;28;20261;-57
2022/01/12 04:53:09;;;;;;;39.53;22.30;;;;;;;-2.26;100.00;96918.06;5109611;28;20208;-60
2022/01/12 04:55:34;;;;;;;38.10;21.37;;;;;;;-2.24;100.00;96913.22;5109823;28;20204;-60
2022/01/12 04:58:00;;;;;;;41.03;22.03;;;;;;;-2.24;100.00;96903.31;5110162;28;20260;-61
2022/01/12 05:00:29;;;;;;;37.80;20.63;;;;;;;-2.23;100.00;96906.81;5092514;28;20203;-61
2022/01/12 05:13:38;;;;;;;44.53;20.63;;;;;;;-2.26;100.00;96926.09;5094502;28;20212;-62
2022/01/12 05:16:04;;;;;;;37.80;21.43;;;;;;;-2.25;100.00;96933.84;5109796;28;20204;-66
2022/01/12 05:18:31;;;;;;;42.57;22.07;;;;;;;-2.24;100.00;96940.78;5110188;28;20653;-67
2022/01/12 05:20:57;;;;;;;40.30;21.77;;;;;;;-2.16;100.00;96944.69;5110449;28;20261;-68
2022/01/12 05:23:23;;;;;;;41.27;20.83;;;;;;;-2.16;100.00;96950.03;5113143;28;20204;-64
2022/01/12 05:25:51;;;;;;;40.00;21.27;;;;;;;-2.13;100.00;96949.47;5113710;28;20264;-68
2022/01/12 05:28:17;;;;;;;39.17;20.70;;;;;;;-2.17;100.00;96949.25;5113485;28;20199;-64
2022/01/12 05:30:42;;;;;;;36.47;20.77;;;;;;;-2.30;100.00;96955.25;5112861;28;20208;-58
2022/01/12 05:33:08;;;;;;;42.13;22.10;;;;;;;-2.18;100.00;96960.25;5113255;28;20560;-64
2022/01/12 05:35:34;;;;;;;42.00;21.00;;;;;;;-2.19;100.00;96972.03;5095914;28;20245;-64
2022/01/12 05:38:04;;;;;;;36.57;19.00;;;;;;;-2.32;100.00;96978.84;5112590;28;20204;-67
2022/01/12 05:40:31;;;;;;;40.37;19.97;;;;;;;-2.22;100.00;96975.25;5112696;28;20198;-63
2022/01/12 05:42:59;;;;;;;35.87;18.93;;;;;;;-2.29;100.00;96977.47;5112584;28;20204;-60
2022/01/12 05:45:25;;;;;;;38.37;20.17;;;;;;;-2.46;100.00;96971.75;5112643;28;20231;-62
2022/01/12 05:50:18;;;;;;;36.23;19.40;;;;;;;-2.30;100.00;96971.31;5097084;28;20192;-62
2022/01/12 05:52:44;;;;;;;35.70;19.27;;;;;;;-2.38;100.00;96979.97;5112944;28;20204;-68
2022/01/12 05:55:11;;;;;;;38.87;20.63;;;;;;;-2.36;100.00;96982.34;5112913;28;20196;-65
2022/01/12 05:57:37;;;;;;;37.30;18.33;;;;;;;-2.41;100.00;96985.09;5112483;28;20238;-65
2022/01/12 06:00:11;;;;;;;36.87;19.37;;;;;;;-2.44;100.00;96981.06;5112447;28;20201;-65
2022/01/12 06:02:36;;;;;;;37.63;18.70;;;;;;;-2.46;100.00;96987.78;5112409;28;20199;-64
2022/01/12 06:05:02;;;;;;;37.67;19.90;;;;;;;-2.47;100.00;96991.53;5112170;28;20248;-64
2022/01/12 06:07:28;;;;;;;38.47;19.63;;;;;;;-2.49;100.00;96983.00;5112883;28;20201;-62
2022/01/12 06:09:53;;;;;;;36.73;19.07;;;;;;;-2.41;100.00;96987.75;5112478;28;20275;-55
2022/01/12 06:12:18;;;;;;;36.10;18.93;;;;;;;-2.33;100.00;96992.50;5112540;28;20212;-57
2022/01/12 06:14:44;;;;;;;38.07;19.90;;;;;;;-2.44;100.00;96986.41;5112266;28;20205;-55
2022/01/12 06:17:10;;;;;;;40.20;22.20;;;;;;;-2.39;100.00;96988.25;5112251;28;20202;-52
2022/01/12 06:19:35;;;;;;;39.97;19.93;;;;;;;-2.35;100.00;96989.28;5112346;28;20212;-54
2022/01/12 06:22:01;;;;;;;37.57;20.33;;;;;;;-2.31;100.00;96990.31;5111807;28;20187;-60
2022/01/12 06:24:26;;;;;;;43.43;22.60;;;;;;;-2.24;100.00;96983.56;5111663;28;20239;-66
2022/01/12 06:26:52;;;;;;;41.00;22.17;;;;;;;-2.09;100.00;96987.94;5111972;28;20216;-59
2022/01/12 06:31:46;;;;;;;34.87;19.00;;;;;;;-2.04;100.00;97012.00;5095786;28;20211;-60
2022/01/12 06:34:11;;;;;;;30.00;17.20;;;;;;;-2.06;100.00;97011.47;5111030;28;20204;-61
2022/01/12 06:36:37;;;;;;;36.70;20.10;;;;;;;-1.99;100.00;97014.59;5111870;28;20282;-60
2022/01/12 06:39:06;;;;;;;36.63;19.47;;;;;;;-1.93;100.00;97013.47;5111876;28;20236;-61
2022/01/12 06:41:31;;;;;;;34.67;18.77;;;;;;;-1.88;100.00;97016.91;5111518;28;20208;-60
2022/01/12 06:43:57;;;;;;;32.17;17.60;;;;;;;-1.87;100.00;97012.31;5094974;28;20235;-59
2022/01/12 06:46:26;;;;;;;27.97;17.10;;;;;;;-1.89;100.00;97017.19;5111711;28;20231;-60
2022/01/12 06:48:51;;;;;;;28.20;16.70;;;;;;;-1.86;100.00;97030.00;5111581;28;20236;-60
2022/01/12 06:51:17;;;;;;;31.20;16.33;;;;;;;-1.83;100.00;97037.44;5111565;28;20185;-60
2022/01/12 06:53:42;;;;;;;27.37;16.93;;;;;;;-1.81;100.00;97046.81;5111777;28;20216;-60
2022/01/12 06:56:08;;;;;;;28.23;16.47;;;;;;;-1.75;100.00;97047.56;5111159;28;20558;-61
2022/01/12 06:58:34;;;;;;;24.53;14.73;;;;;;;-1.75;100.00;97058.25;5111419;28;20205;-60
2022/01/12 07:01:00;;;;;;;30.70;16.47;;;;;;;-1.72;100.00;97063.00;5111714;28;20672;-63
2022/01/12 07:03:25;;;;;;;30.30;16.30;;;;;;;-1.71;100.00;97064.63;5111232;28;20193;-63
2022/01/12 07:05:51;;;;;;;31.73;16.33;;;;;;;-1.70;100.00;97066.22;5111506;28;20226;-59
2022/01/12 07:08:16;;;;;;;23.57;13.53;;;;;;;-1.68;100.00;97066.75;5111276;28;20215;-55
2022/01/12 07:10:41;;;;;;;24.17;14.03;;;;;;;-1.66;100.00;97062.69;5111054;28;20249;-59
2022/01/12 07:13:10;;;;;;;23.77;13.97;;;;;;;-1.71;100.00;97060.06;5111267;28;20205;-57
2022/01/12 07:15:37;;;;;;;26.50;14.90;;;;;;;-1.66;100.00;97067.25;5111144;28;20296;-55
2022/01/12 07:18:03;;;;;;;24.90;14.73;;;;;;;-1.72;100.00;97063.81;5111116;28;20241;-58
2022/01/12 07:20:29;;;;;;;26.90;14.83;;;;;;;-1.70;100.00;97071.56;5111032;28;20184;-54
2022/01/12 07:22:54;;;;;;;26.83;15.10;;;;;;;-1.65;100.00;97087.56;5111633;28;20204;-58
2022/01/12 07:25:19;;;;;;;22.87;14.60;;;;;;;-1.64;100.00;97086.50;5111236;28;20204;-59
2022/01/12 07:27:45;;;;;;;25.10;14.53;;;;;;;-1.61;100.00;97097.44;5111028;28;20208;-56
2022/01/12 07:30:11;;;;;;;24.90;13.70;;;;;;;-1.62;100.00;97098.53;5110778;28;20209;-55
2022/01/12 07:32:36;;;;;;;25.50;14.87;;;;;;;-1.60;100.00;97098.25;5110943;28;20212;-57
2022/01/12 07:35:02;;;;;;;28.03;16.13;;;;;;;-1.65;100.00;97101.78;5111085;28;20200;-59
2022/01/12 07:37:27;;;;;;;25.23;14.80;;;;;;;-1.68;100.00;97101.56;5111157;28;20207;-56
2022/01/12 07:39:53;;;;;;;26.40;15.63;;;;;;;-1.60;100.00;97100.94;5111029;28;20204;-60
2022/01/12 07:42:18;;;;;;;24.43;14.80;;;;;;;-1.56;100.00;97109.97;5110954;28;20196;-60
2022/01/12 07:44:44;;;;;;;23.63;14.10;;;;;;;-1.51;100.00;97112.59;5109896;28;20201;-60
2022/01/12 07:47:09;;;;;;;24.63;14.93;;;;;;;-1.42;100.00;97110.91;5110850;28;20204;-57
2022/01/12 07:49:36;;;;;;;26.63;15.77;;;;;;;-1.38;100.00;97122.66;5111077;28;20203;-57
2022/01/12 07:52:02;;;;;;;26.13;15.43;;;;;;;-1.24;100.00;97136.97;5110360;28;20195;-58
2022/01/12 07:54:28;;;;;;;26.07;15.20;;;;;;;-1.17;100.00;97137.41;5110463;28;20200;-58
2022/01/12 07:56:53;;;;;;;21.83;13.37;;;;;;;-1.28;100.00;97143.97;5110797;28;20200;-53
2022/01/12 07:59:18;;;;;;;20.20;13.10;;;;;;;-1.44;100.00;97150.56;5110549;28;20206;-57
2022/01/12 08:01:44;;;;;;;22.77;13.77;;;;;;;-1.39;100.00;97147.81;5110384;28;20208;-58
2022/01/12 08:04:09;;;;;;;22.90;13.30;;;;;;;-1.37;100.00;97145.66;5110103;28;20209;-56
2022/01/12 08:06:34;;;;;;;22.57;12.63;;;;;;;-1.50;100.00;97157.03;5110837;28;20211;-57
2022/01/12 08:09:00;;;;;;;22.50;13.33;;;;;;;-1.50;100.00;97146.31;5094733;28;20285;-58
2022/01/12 08:11:25;;;;;;;21.33;13.80;;;;;;;-1.49;100.00;97142.59;5110201;28;20200;-54
2022/01/12 08:13:52;;;;;;;24.90;13.57;;;;;;;-1.58;100.00;97149.63;5110271;28;20236;-54
2022/01/12 08:16:18;;;;;;;23.13;13.80;;;;;;;-1.65;100.00;97143.78;5110369;28;20239;-64
2022/01/12 08:18:43;;;;;;;24.93;14.50;;;;;;;-1.61;100.00;97148.31;5110547;28;20588;-61
2022/01/12 08:21:08;;;;;;;24.23;14.20;;;;;;;-1.70;100.00;97160.72;5110301;28;20192;-61
2022/01/12 08:23:34;;;;;;;24.40;14.17;;;;;;;-1.66;100.00;97153.72;5110735;28;20261;-60
2022/01/12 08:25:59;;;;;;;22.97;13.43;;;;;;;-1.56;100.00;97155.50;5110586;28;20197;-60
2022/01/12 08:28:25;;;;;;;26.33;14.17;;;;;;;-1.59;100.00;97153.38;5092921;28;20284;-59
2022/01/12 08:30:51;;;;;;;23.83;14.10;;;;;;;-1.58;100.00;97161.13;5110372;28;20249;-60
2022/01/12 08:33:17;;;;;;;24.33;13.70;;;;;;;-1.63;100.00;97157.72;5109984;28;20228;-60
2022/01/12 08:35:42;;;;;;;24.13;13.73;;;;;;;-1.68;100.00;97160.44;5109957;28;20188;-60
2022/01/12 08:38:08;;;;;;;23.97;13.97;;;;;;;-1.81;100.00;97169.94;5109787;28;20196;-66
2022/01/12 08:40:33;;;;;;;25.43;13.70;;;;;;;-1.80;100.00;97162.66;5110184;28;20192;-66
2022/01/12 08:42:58;;;;;;;24.10;13.50;;;;;;;-1.89;100.00;97167.03;5093432;28;20215;-64
2022/01/12 08:45:24;;;;;;;25.70;14.23;;;;;;;-1.97;100.00;97167.66;5109781;28;20201;-66
2022/01/12 08:47:50;;;;;;;26.13;14.30;;;;;;;-1.85;100.00;97170.75;5092811;28;20208;-65
2022/01/12 08:50:15;;;;;;;23.43;13.70;;;;;;;-1.74;100.00;97167.72;5110197;28;20212;-67
2022/01/12 08:52:44;;;;;;;26.47;13.83;;;;;;;-1.62;100.00;97170.81;5109316;28;20212;-55
2022/01/12 08:55:12;;;;;;;24.53;13.83;;;;;;;-1.60;100.00;97174.00;5110243;28;20265;-66
2022/01/12 08:57:37;;;;;;;23.97;13.53;;;;;;;-1.63;100.00;97179.13;5115969;28;20199;-64
2022/01/12 09:00:05;;;;;;;22.63;14.20;;;;;;;-1.59;100.00;97174.81;5116904;28;20204;-66
2022/01/12 09:02:30;;;;;;;24.57;14.07;;;;;;;-1.52;100.00;97176.09;5115985;28;20196;-62
2022/01/12 09:04:55;;;;;;;24.50;14.43;;;;;;;-1.62;100.00;97173.50;5116214;28;20207;-62
2022/01/12 09:07:21;;;;;;;23.30;13.70;;;;;;;-1.75;100.00;97178.72;5116327;28;20676;-63
2022/01/12 09:09:46;;;;;;;22.40;14.47;;;;;;;-1.85;100.00;97178.78;5116750;28;20196;-65
2022/01/12 09:12:11;;;;;;;22.80;13.70;;;;;;;-1.93;100.00;97174.81;5115722;28;20204;-56
2022/01/12 09:14:37;;;;;;;22.53;13.97;;;;;;;-1.96;100.00;97185.31;5116072;28;20201;-62
2022/01/12 09:17:02;;;;;;;27.33;14.40;;;;;;;-1.81;100.00;97196.69;5116265;28;20368;-63
2022/01/12 09:19:28;;;;;;;26.00;14.63;;;;;;;-1.60;100.00;97187.38;5116439;28;20192;-63
2022/01/12 09:21:54;;;;;;;22.73;13.57;;;;;;;-1.44;100.00;97178.16;5098935;28;20277;-64
2022/01/12 09:24:20;;;;;;;23.93;13.10;;;;;;;-1.38;100.00;97176.22;5116178;28;20297;-63
2022/01/12 09:26:46;;;;;;;22.73;13.60;;;;;;;-1.43;100.00;97178.94;5116028;28;20198;-64
2022/01/12 09:29:11;;;;;;;26.73;14.53;;;;;;;-1.33;100.00;97184.19;5116063;28;20207;-60
2022/01/12 09:31:36;;;;;;;25.73;14.60;;;;;;;-1.33;100.00;97173.47;5116083;28;20257;-60
2022/01/12 09:34:03;;;;;;;24.23;14.17;;;;;;;-1.15;100.00;97172.75;5115904;28;20197;-60
2022/01/12 09:36:29;;;;;;;25.07;14.67;;;;;;;-1.09;100.00;97176.97;5116255;28;20285;-59
2022/01/12 09:38:54;;;;;;;24.93;15.10;;;;;;;-1.18;100.00;97176.00;5116271;28;20228;-60
2022/01/12 09:41:20;;;;;;;26.43;14.97;;;;;;;-1.13;100.00;97184.00;5116096;28;20224;-59
2022/01/12 09:43:51;;;;;;;29.20;16.23;;;;;;;-0.89;100.00;97179.41;5115730;28;20203;-59
2022/01/12 09:46:16;;;;;;;27.57;15.53;;;;;;;-0.76;100.00;97174.16;5098752;28;20205;-53
2022/01/12 09:48:42;;;;;;;24.07;14.23;;;;;;;-0.84;100.00;97174.00;5116350;28;20196;-66
2022/01/12 09:51:07;;;;;;;24.33;14.70;;;;;;;-0.84;100.00;97176.69;5116560;28;20213;-52
2022/01/12 09:53:36;;;;;;;24.17;14.17;;;;;;;-0.79;100.00;97173.94;5116256;28;20212;-57
2022/01/12 09:56:09;;;;;;;25.63;15.33;;;;;;;-0.67;100.00;97177.00;5116275;28;20205;-55
2022/01/12 09:58:34;;;;;;;25.00;14.70;;;;;;;-0.50;100.00;97177.31;5116122;28;20284;-55
2022/01/12 10:01:03;;;;;;;24.97;15.57;;;;;;;-0.88;100.00;97181.81;5115951;28;20253;-54
2022/01/12 10:03:28;;;;;;;21.77;14.97;;;;;;;-0.71;100.00;97175.97;5115566;28;20212;-55
2022/01/12 10:05:55;;;;;;;22.33;13.13;;;;;;;-0.71;100.00;97181.34;5115761;28;20194;-66
2022/01/12 10:08:35;;;;;;;21.23;13.47;;;;;;;-0.74;100.00;97179.22;5112839;28;20209;-56
2022/01/12 10:11:05;;;;;;;21.00;13.00;;;;;;;-0.72;100.00;97166.34;5112752;28;20240;-54
2022/01/12 10:13:31;;;;;;;19.43;13.00;;;;;;;-0.75;100.00;97169.59;5112358;28;20211;-53
2022/01/12 10:15:57;;;;;;;19.90;13.27;;;;;;;-0.74;100.00;97160.47;5112340;28;20214;-58
2022/01/12 10:18:23;;;;;;;18.97;13.43;;;;;;;-0.50;100.00;97162.00;5112647;28;20530;-50
2022/01/12 10:20:49;;;;;;;20.43;12.47;;;;;;;-0.38;100.00;97169.63;5112514;28;20202;-56
2022/01/12 10:23:16;;;;;;;21.27;12.80;;;;;;;-0.40;100.00;97169.13;5111958;28;20649;-57
2022/01/12 10:25:46;;;;;;;20.13;12.57;;;;;;;-0.48;100.00;97170.56;5112375;28;20194;-65
2022/01/12 10:28:21;;;;;;;19.97;13.27;;;;;;;-0.40;100.00;97166.47;5111898;28;20195;-64
2022/01/12 10:31:02;;;;;;;19.73;12.27;;;;;;;-0.37;100.00;97165.84;5112483;28;20211;-64
2022/01/12 10:33:30;;;;;;;21.30;12.40;;;;;;;-0.16;100.00;97156.44;5111943;28;20251;-62
2022/01/12 10:35:58;;;;;;;17.37;11.97;;;;;;;-0.22;100.00;97141.47;5111999;28;20203;-61
2022/01/12 10:38:25;;;;;;;18.20;12.17;;;;;;;-0.17;100.00;97149.47;5096053;28;20208;-62
2022/01/12 10:40:58;;;;;;;20.97;12.87;;;;;;;-0.27;100.00;97160.34;5095307;28;20266;-61
2022/01/12 10:43:31;;;;;;;18.97;12.40;;;;;;;-0.38;100.00;97158.91;5112311;28;20551;-49
2022/01/12 10:45:59;;;;;;;15.97;11.40;;;;;;;-0.34;100.00;97162.59;5111942;28;20651;-63
2022/01/12 10:48:31;;;;;;;18.60;12.33;;;;;;;-0.23;100.00;97161.38;5111625;28;20202;-64
2022/01/12 10:50:58;;;;;;;19.73;12.73;;;;;;;-0.25;100.00;97163.56;5111818;28;20207;-64
2022/01/12 10:53:28;;;;;;;17.03;11.03;;;;;;;-0.20;100.00;97155.41;5111528;28;20211;-64
2022/01/12 10:56:05;;;;;;;18.43;12.07;;;;;;;-0.01;100.00;97153.50;5111329;28;20193;-63
2022/01/12 10:58:31;;;;;;;18.07;11.07;;;;;;;0.14;100.00;97158.63;5096298;28;20229;-64
2022/01/12 11:00:57;;;;;;;20.27;11.90;;;;;;;0.17;100.00;97157.28;5111602;28;20198;-64
2022/01/12 11:03:23;;;;;;;18.67;12.77;;;;;;;0.28;100.00;97166.75;5111676;28;20234;-53
2022/01/12 11:05:50;;;;;;;20.60;12.43;;;;;;;0.23;100.00;97154.22;5111570;28;20233;-54
2022/01/12 11:08:17;;;;;;;19.47;12.30;;;;;;;0.17;100.00;97160.75;5111661;28;20289;-50
2022/01/12 11:10:43;;;;;;;19.73;11.83;;;;;;;0.25;100.00;97146.63;5111529;28;20330;-52
2022/01/12 11:13:08;;;;;;;20.87;12.07;;;;;;;0.37;100.00;97154.25;5110691;28;20203;-52
2022/01/12 11:15:34;;;;;;;20.87;12.60;;;;;;;0.47;100.00;97154.84;5111124;28;20200;-54
2022/01/12 11:17:59;;;;;;;20.80;12.20;;;;;;;0.58;100.00;97156.25;5111245;28;20202;-49
2022/01/12 11:20:26;;;;;;;16.90;11.77;;;;;;;0.67;100.00;97153.69;5095402;28;20228;-63
2022/01/12 11:23:01;;;;;;;18.60;12.10;;;;;;;0.54;100.00;97163.31;5111157;28;20208;-58
2022/01/12 11:25:35;;;;;;;16.80;11.33;;;;;;;0.23;100.00;97153.41;5093944;28;20196;-58
2022/01/12 11:28:08;;;;;;;19.73;11.90;;;;;;;0.01;100.00;97156.72;5111350;28;20207;-56
2022/01/12 11:30:34;;;;;;;18.10;11.67;;;;;;;0.11;100.00;97161.94;5094465;28;20214;-58
2022/01/12 11:33:02;;;;;;;19.37;11.10;;;;;;;0.28;100.00;97161.38;5094130;28;20207;-58
2022/01/12 11:35:34;;;;;;;19.80;11.57;;;;;;;0.34;100.00;97163.69;5110866;28;20207;-58
2022/01/12 11:38:00;;;;;;;18.43;11.70;;;;;;;0.51;100.00;97153.16;5094412;28;20196;-59
2022/01/12 11:40:37;;;;;;;17.20;11.60;;;;;;;0.74;100.00;97160.28;5110695;28;20209;-56
2022/01/12 11:43:05;;;;;;;17.50;11.70;;;;;;;0.80;100.00;97153.72;5093570;28;20196;-54
2022/01/12 11:45:30;;;;;;;19.67;11.50;;;;;;;0.88;100.00;97150.34;5094898;28;20199;-55
2022/01/12 11:47:56;;;;;;;19.73;12.43;;;;;;;0.80;100.00;97148.31;5111423;28;20200;-56
2022/01/12 11:50:21;;;;;;;20.63;11.77;;;;;;;0.72;100.00;97138.28;5110723;28;20207;-55
2022/01/12 11:52:47;;;;;;;21.07;13.30;;;;;;;0.66;100.00;97142.16;5110472;28;20212;-55
2022/01/12 11:55:15;;;;;;;23.40;13.67;;;;;;;0.73;100.00;97131.78;5110873;28;20191;-59
2022/01/12 11:57:45;;;;;;;21.40;13.00;;;;;;;0.53;100.00;97132.19;5111276;28;20295;-55
2022/01/12 12:00:14;;;;;;;18.50;12.43;;;;;;;0.40;100.00;97122.19;5094031;28;20277;-58
2022/01/12 12:02:45;;;;;;;20.73;12.77;;;;;;;0.48;100.00;97129.59;5110915;28;20270;-58
2022/01/12 12:05:17;;;;;;;20.27;13.27;;;;;;;0.36;100.00;97142.69;5110530;28;20254;-59
2022/01/12 12:07:47;;;;;;;19.93;13.13;;;;;;;0.29;100.00;97142.25;5110817;28;20207;-60
2022/01/12 12:10:15;;;;;;;19.77;12.77;;;;;;;0.13;100.00;97140.94;5110483;28;20723;-60
2022/01/12 12:12:41;;;;;;;21.30;13.90;;;;;;;0.12;100.00;97147.41;5110856;28;20263;-59
2022/01/12 12:15:09;;;;;;;21.00;13.20;;;;;;;0.14;100.00;97155.94;5110928;28;20199;-55
2022/01/12 12:17:37;;;;;;;23.23;13.93;;;;;;;0.16;100.00;97148.41;5110197;28;20183;-56
2022/01/12 12:20:05;;;;;;;22.17;13.73;;;;;;;0.33;100.00;97143.31;5109829;28;20204;-56
2022/01/12 12:22:38;;;;;;;22.00;13.00;;;;;;;0.36;100.00;97150.75;5093378;28;20199;-55
2022/01/12 12:25:06;;;;;;;22.63;14.33;;;;;;;0.44;100.00;97155.47;5109982;28;20204;-56
2022/01/12 12:27:35;;;;;;;22.17;13.60;;;;;;;0.34;100.00;97169.06;5093516;28;20200;-54
2022/01/12 12:30:03;;;;;;;21.77;14.03;;;;;;;0.10;100.00;97159.53;5110252;28;20210;-55
2022/01/12 12:32:47;;;;;;;22.47;13.73;;;;;;;0.18;100.00;97170.38;5109264;28;20359;-51
2022/01/12 12:35:18;;;;;;;20.03;12.77;;;;;;;0.14;100.00;97172.06;5110210;28;20202;-55